EGYD weather

RAF Cranwell
Cranwell, England, United Kingdom

Public forecast

Using degrees Celsius for public forecast. Weather courtesy of forecast.io.

METAR (pilot weather report)

Retrieved 2019/04/24 08:50 UTC (43 minutes ago):

EGYD 240850Z 09005KT 6000 HZ SCT100 SCT220 12/09 Q0993 WHT BECMG 8000 BLU

TAF (pilot weather forecast)

Forecast is more than 12 hours old.

Retrieved 2010/08/24 22:45 UTC (9 years ago):

TAF EGYD 242245Z 2421/2524 CNL